sensor_id;sensor_type;location;lat;lon;timestamp;P1;durP1;ratioP1;P2;durP2;ratioP2
23561;SDS011;11959;49.418;8.728;2023-07-24T00:02:03;4.78;;;3.35;;
23561;SDS011;11959;49.418;8.728;2023-07-24T00:04:32;5.43;;;3.50;;
23561;SDS011;11959;49.418;8.728;2023-07-24T00:06:58;5.05;;;3.42;;
23561;SDS011;11959;49.418;8.728;2023-07-24T00:09:27;8.00;;;3.20;;
23561;SDS011;11959;49.418;8.728;2023-07-24T00:11:52;4.90;;;3.63;;
23561;SDS011;11959;49.418;8.728;2023-07-24T00:14:18;5.15;;;3.47;;
23561;SDS011;11959;49.418;8.728;2023-07-24T00:16:44;5.25;;;3.58;;
23561;SDS011;11959;49.418;8.728;2023-07-24T00:19:09;5.63;;;3.80;;
23561;SDS011;11959;49.418;8.728;2023-07-24T00:21:35;5.97;;;3.53;;
23561;SDS011;11959;49.418;8.728;2023-07-24T00:24:00;5.43;;;3.38;;
23561;SDS011;11959;49.418;8.728;2023-07-24T00:26:26;6.60;;;3.65;;
23561;SDS011;11959;49.418;8.728;2023-07-24T00:28:52;7.07;;;3.80;;
23561;SDS011;11959;49.418;8.728;2023-07-24T00:31:17;5.78;;;3.40;;
23561;SDS011;11959;49.418;8.728;2023-07-24T00:33:43;5.57;;;3.50;;
23561;SDS011;11959;49.418;8.728;2023-07-24T00:36:09;7.07;;;4.30;;
23561;SDS011;11959;49.418;8.728;2023-07-24T00:38:34;4.93;;;3.65;;
23561;SDS011;11959;49.418;8.728;2023-07-24T00:41:00;5.35;;;3.70;;
23561;SDS011;11959;49.418;8.728;2023-07-24T00:43:25;5.70;;;3.42;;
23561;SDS011;11959;49.418;8.728;2023-07-24T00:45:51;5.80;;;3.70;;
23561;SDS011;11959;49.418;8.728;2023-07-24T00:48:19;5.13;;;3.40;;
23561;SDS011;11959;49.418;8.728;2023-07-24T00:50:44;5.22;;;3.90;;
23561;SDS011;11959;49.418;8.728;2023-07-24T00:53:11;5.47;;;3.13;;
23561;SDS011;11959;49.418;8.728;2023-07-24T00:55:37;5.57;;;3.75;;
23561;SDS011;11959;49.418;8.728;2023-07-24T00:58:04;4.90;;;3.45;;
23561;SDS011;11959;49.418;8.728;2023-07-24T01:00:30;6.22;;;3.72;;
23561;SDS011;11959;49.418;8.728;2023-07-24T01:02:56;6.15;;;3.50;;
23561;SDS011;11959;49.418;8.728;2023-07-24T01:05:22;6.78;;;3.67;;
23561;SDS011;11959;49.418;8.728;2023-07-24T01:07:50;5.70;;;3.70;;
23561;SDS011;11959;49.418;8.728;2023-07-24T01:10:19;5.70;;;3.55;;
23561;SDS011;11959;49.418;8.728;2023-07-24T01:12:51;5.65;;;3.60;;
23561;SDS011;11959;49.418;8.728;2023-07-24T01:18:01;4.95;;;3.70;;
23561;SDS011;11959;49.418;8.728;2023-07-24T01:20:32;6.10;;;3.92;;
23561;SDS011;11959;49.418;8.728;2023-07-24T01:23:14;6.80;;;4.13;;
23561;SDS011;11959;49.418;8.728;2023-07-24T01:25:56;5.55;;;3.85;;
23561;SDS011;11959;49.418;8.728;2023-07-24T01:28:27;6.38;;;3.88;;
23561;SDS011;11959;49.418;8.728;2023-07-24T01:30:53;6.07;;;3.97;;
23561;SDS011;11959;49.418;8.728;2023-07-24T01:33:19;6.03;;;3.72;;
23561;SDS011;11959;49.418;8.728;2023-07-24T01:35:48;5.35;;;3.45;;
23561;SDS011;11959;49.418;8.728;2023-07-24T01:38:16;6.50;;;4.07;;
23561;SDS011;11959;49.418;8.728;2023-07-24T01:40:41;5.53;;;3.88;;
23561;SDS011;11959;49.418;8.728;2023-07-24T01:43:08;5.63;;;4.07;;
23561;SDS011;11959;49.418;8.728;2023-07-24T01:45:34;5.90;;;3.95;;
23561;SDS011;11959;49.418;8.728;2023-07-24T01:48:01;5.28;;;3.72;;
23561;SDS011;11959;49.418;8.728;2023-07-24T01:50:28;6.18;;;3.60;;
23561;SDS011;11959;49.418;8.728;2023-07-24T01:52:54;6.05;;;4.07;;
23561;SDS011;11959;49.418;8.728;2023-07-24T01:55:19;6.70;;;4.00;;
23561;SDS011;11959;49.418;8.728;2023-07-24T01:57:45;5.43;;;3.67;;
23561;SDS011;11959;49.418;8.728;2023-07-24T02:00:11;6.60;;;4.10;;
23561;SDS011;11959;49.418;8.728;2023-07-24T02:02:37;6.18;;;4.30;;
23561;SDS011;11959;49.418;8.728;2023-07-24T02:05:02;5.78;;;3.92;;
23561;SDS011;11959;49.418;8.728;2023-07-24T02:07:28;5.70;;;4.20;;
23561;SDS011;11959;49.418;8.728;2023-07-24T02:09:54;5.72;;;4.25;;
23561;SDS011;11959;49.418;8.728;2023-07-24T02:12:19;7.40;;;4.15;;
23561;SDS011;11959;49.418;8.728;2023-07-24T02:14:45;6.13;;;3.80;;
23561;SDS011;11959;49.418;8.728;2023-07-24T02:17:14;6.22;;;3.88;;
23561;SDS011;11959;49.418;8.728;2023-07-24T02:19:40;5.72;;;3.95;;
23561;SDS011;11959;49.418;8.728;2023-07-24T02:22:06;5.20;;;3.63;;
23561;SDS011;11959;49.418;8.728;2023-07-24T02:24:32;7.15;;;4.00;;
23561;SDS011;11959;49.418;8.728;2023-07-24T02:26:58;5.32;;;3.80;;
23561;SDS011;11959;49.418;8.728;2023-07-24T02:29:23;6.25;;;3.85;;
23561;SDS011;11959;49.418;8.728;2023-07-24T02:31:49;5.70;;;4.25;;
23561;SDS011;11959;49.418;8.728;2023-07-24T02:34:15;6.15;;;3.78;;
23561;SDS011;11959;49.418;8.728;2023-07-24T02:36:41;6.07;;;3.60;;
23561;SDS011;11959;49.418;8.728;2023-07-24T02:39:07;6.80;;;3.85;;
23561;SDS011;11959;49.418;8.728;2023-07-24T02:41:33;5.78;;;3.80;;
23561;SDS011;11959;49.418;8.728;2023-07-24T02:43:58;5.45;;;3.90;;
23561;SDS011;11959;49.418;8.728;2023-07-24T02:46:24;6.78;;;4.07;;
23561;SDS011;11959;49.418;8.728;2023-07-24T02:48:50;6.07;;;3.67;;
23561;SDS011;11959;49.418;8.728;2023-07-24T02:51:16;6.18;;;4.00;;
23561;SDS011;11959;49.418;8.728;2023-07-24T02:53:42;6.57;;;3.92;;
23561;SDS011;11959;49.418;8.728;2023-07-24T02:56:07;6.25;;;4.03;;
23561;SDS011;11959;49.418;8.728;2023-07-24T02:58:33;5.75;;;4.05;;
23561;SDS011;11959;49.418;8.728;2023-07-24T03:01:02;6.25;;;4.00;;
23561;SDS011;11959;49.418;8.728;2023-07-24T03:03:29;6.20;;;4.22;;
23561;SDS011;11959;49.418;8.728;2023-07-24T03:05:54;6.25;;;4.05;;
23561;SDS011;11959;49.418;8.728;2023-07-24T03:08:20;5.72;;;3.78;;
23561;SDS011;11959;49.418;8.728;2023-07-24T03:10:46;6.15;;;4.10;;
23561;SDS011;11959;49.418;8.728;2023-07-24T03:13:11;6.45;;;4.25;;
23561;SDS011;11959;49.418;8.728;2023-07-24T03:15:37;6.93;;;4.88;;
23561;SDS011;11959;49.418;8.728;2023-07-24T03:18:03;6.20;;;4.15;;
23561;SDS011;11959;49.418;8.728;2023-07-24T03:20:28;5.22;;;3.60;;
23561;SDS011;11959;49.418;8.728;2023-07-24T03:22:54;5.32;;;3.83;;
23561;SDS011;11959;49.418;8.728;2023-07-24T03:25:20;6.88;;;4.07;;
23561;SDS011;11959;49.418;8.728;2023-07-24T03:27:45;5.82;;;4.20;;
23561;SDS011;11959;49.418;8.728;2023-07-24T03:30:11;6.65;;;4.00;;
23561;SDS011;11959;49.418;8.728;2023-07-24T03:32:37;6.43;;;4.15;;
23561;SDS011;11959;49.418;8.728;2023-07-24T03:35:03;6.40;;;4.07;;
23561;SDS011;11959;49.418;8.728;2023-07-24T03:37:30;7.07;;;4.05;;
23561;SDS011;11959;49.418;8.728;2023-07-24T03:39:56;6.07;;;4.13;;
23561;SDS011;11959;49.418;8.728;2023-07-24T03:42:26;6.32;;;4.22;;
23561;SDS011;11959;49.418;8.728;2023-07-24T03:44:53;6.00;;;4.50;;
23561;SDS011;11959;49.418;8.728;2023-07-24T03:47:18;6.20;;;4.22;;
23561;SDS011;11959;49.418;8.728;2023-07-24T03:49:44;7.55;;;4.20;;
23561;SDS011;11959;49.418;8.728;2023-07-24T03:52:09;6.07;;;4.30;;
23561;SDS011;11959;49.418;8.728;2023-07-24T03:54:35;6.10;;;4.15;;
23561;SDS011;11959;49.418;8.728;2023-07-24T03:57:01;5.97;;;4.22;;
23561;SDS011;11959;49.418;8.728;2023-07-24T03:59:26;6.30;;;4.32;;
23561;SDS011;11959;49.418;8.728;2023-07-24T04:01:52;6.47;;;4.10;;
23561;SDS011;11959;49.418;8.728;2023-07-24T04:04:18;6.30;;;4.45;;
23561;SDS011;11959;49.418;8.728;2023-07-24T04:06:43;6.40;;;4.03;;
23561;SDS011;11959;49.418;8.728;2023-07-24T04:09:11;7.30;;;4.13;;
23561;SDS011;11959;49.418;8.728;2023-07-24T04:11:39;6.90;;;4.00;;
23561;SDS011;11959;49.418;8.728;2023-07-24T04:14:05;6.20;;;4.13;;
23561;SDS011;11959;49.418;8.728;2023-07-24T04:16:31;6.93;;;4.20;;
23561;SDS011;11959;49.418;8.728;2023-07-24T04:18:56;6.28;;;4.40;;
23561;SDS011;11959;49.418;8.728;2023-07-24T04:21:22;5.80;;;4.25;;
23561;SDS011;11959;49.418;8.728;2023-07-24T04:23:48;7.65;;;4.53;;
23561;SDS011;11959;49.418;8.728;2023-07-24T04:26:14;6.50;;;4.65;;
23561;SDS011;11959;49.418;8.728;2023-07-24T04:28:39;6.93;;;4.57;;
23561;SDS011;11959;49.418;8.728;2023-07-24T04:31:05;6.95;;;4.70;;
23561;SDS011;11959;49.418;8.728;2023-07-24T04:33:30;7.47;;;4.53;;
23561;SDS011;11959;49.418;8.728;2023-07-24T04:35:56;6.20;;;4.65;;
23561;SDS011;11959;49.418;8.728;2023-07-24T04:38:22;6.03;;;4.15;;
23561;SDS011;11959;49.418;8.728;2023-07-24T04:40:47;7.22;;;4.85;;
23561;SDS011;11959;49.418;8.728;2023-07-24T04:43:13;6.65;;;4.43;;
23561;SDS011;11959;49.418;8.728;2023-07-24T04:45:39;7.20;;;4.60;;
23561;SDS011;11959;49.418;8.728;2023-07-24T04:48:05;8.27;;;4.95;;
23561;SDS011;11959;49.418;8.728;2023-07-24T04:50:30;7.63;;;4.80;;
23561;SDS011;11959;49.418;8.728;2023-07-24T04:52:57;6.60;;;4.63;;
23561;SDS011;11959;49.418;8.728;2023-07-24T04:55:23;6.00;;;4.55;;
23561;SDS011;11959;49.418;8.728;2023-07-24T04:57:48;8.32;;;5.25;;
23561;SDS011;11959;49.418;8.728;2023-07-24T05:00:14;6.50;;;4.68;;
23561;SDS011;11959;49.418;8.728;2023-07-24T05:02:40;7.75;;;5.30;;
23561;SDS011;11959;49.418;8.728;2023-07-24T05:05:06;7.70;;;5.53;;
23561;SDS011;11959;49.418;8.728;2023-07-24T05:07:31;7.40;;;4.75;;
23561;SDS011;11959;49.418;8.728;2023-07-24T05:09:57;7.32;;;4.88;;
23561;SDS011;11959;49.418;8.728;2023-07-24T05:12:23;7.05;;;5.07;;
23561;SDS011;11959;49.418;8.728;2023-07-24T05:14:49;7.10;;;4.82;;
23561;SDS011;11959;49.418;8.728;2023-07-24T05:17:15;8.35;;;5.10;;
23561;SDS011;11959;49.418;8.728;2023-07-24T05:19:40;7.70;;;5.25;;
23561;SDS011;11959;49.418;8.728;2023-07-24T05:22:06;7.88;;;4.93;;
23561;SDS011;11959;49.418;8.728;2023-07-24T05:24:32;7.88;;;5.20;;
23561;SDS011;11959;49.418;8.728;2023-07-24T05:26:58;7.97;;;5.22;;
23561;SDS011;11959;49.418;8.728;2023-07-24T05:29:24;6.88;;;4.88;;
23561;SDS011;11959;49.418;8.728;2023-07-24T05:31:50;8.48;;;5.75;;
23561;SDS011;11959;49.418;8.728;2023-07-24T05:34:15;8.35;;;5.68;;
23561;SDS011;11959;49.418;8.728;2023-07-24T05:36:41;8.13;;;4.72;;
23561;SDS011;11959;49.418;8.728;2023-07-24T05:39:07;7.38;;;5.22;;
23561;SDS011;11959;49.418;8.728;2023-07-24T05:41:32;9.60;;;5.93;;
23561;SDS011;11959;49.418;8.728;2023-07-24T05:43:58;7.60;;;5.35;;
23561;SDS011;11959;49.418;8.728;2023-07-24T05:46:23;8.15;;;5.25;;
23561;SDS011;11959;49.418;8.728;2023-07-24T05:48:50;7.22;;;5.40;;
23561;SDS011;11959;49.418;8.728;2023-07-24T05:51:19;8.20;;;5.70;;
23561;SDS011;11959;49.418;8.728;2023-07-24T05:53:45;6.97;;;5.00;;
23561;SDS011;11959;49.418;8.728;2023-07-24T05:56:18;8.02;;;5.53;;
23561;SDS011;11959;49.418;8.728;2023-07-24T05:58:44;7.90;;;5.22;;
23561;SDS011;11959;49.418;8.728;2023-07-24T06:01:10;7.55;;;4.82;;
23561;SDS011;11959;49.418;8.728;2023-07-24T06:03:36;8.38;;;5.60;;
23561;SDS011;11959;49.418;8.728;2023-07-24T06:06:03;9.25;;;6.00;;
23561;SDS011;11959;49.418;8.728;2023-07-24T06:08:29;7.88;;;5.65;;
23561;SDS011;11959;49.418;8.728;2023-07-24T06:10:55;9.88;;;5.70;;
23561;SDS011;11959;49.418;8.728;2023-07-24T06:13:20;7.90;;;5.63;;
23561;SDS011;11959;49.418;8.728;2023-07-24T06:15:49;10.23;;;5.68;;
23561;SDS011;11959;49.418;8.728;2023-07-24T06:18:15;8.57;;;5.95;;
23561;SDS011;11959;49.418;8.728;2023-07-24T06:20:41;8.95;;;5.93;;
23561;SDS011;11959;49.418;8.728;2023-07-24T06:23:06;9.10;;;5.95;;
23561;SDS011;11959;49.418;8.728;2023-07-24T06:25:32;8.75;;;6.10;;
23561;SDS011;11959;49.418;8.728;2023-07-24T06:27:58;8.27;;;5.45;;
23561;SDS011;11959;49.418;8.728;2023-07-24T06:30:24;9.23;;;5.28;;
23561;SDS011;11959;49.418;8.728;2023-07-24T06:32:50;8.45;;;5.55;;
23561;SDS011;11959;49.418;8.728;2023-07-24T06:35:16;8.90;;;5.93;;
23561;SDS011;11959;49.418;8.728;2023-07-24T06:37:41;8.50;;;5.90;;
23561;SDS011;11959;49.418;8.728;2023-07-24T06:40:07;8.18;;;5.45;;
23561;SDS011;11959;49.418;8.728;2023-07-24T06:42:33;9.70;;;6.45;;
23561;SDS011;11959;49.418;8.728;2023-07-24T06:44:59;7.90;;;5.60;;
23561;SDS011;11959;49.418;8.728;2023-07-24T06:47:25;10.13;;;6.50;;
23561;SDS011;11959;49.418;8.728;2023-07-24T06:49:50;8.45;;;6.20;;
23561;SDS011;11959;49.418;8.728;2023-07-24T06:52:16;11.57;;;6.15;;
23561;SDS011;11959;49.418;8.728;2023-07-24T06:54:42;7.70;;;5.43;;
23561;SDS011;11959;49.418;8.728;2023-07-24T06:57:07;8.40;;;5.47;;
23561;SDS011;11959;49.418;8.728;2023-07-24T06:59:33;8.55;;;6.07;;
23561;SDS011;11959;49.418;8.728;2023-07-24T07:01:59;9.60;;;6.25;;
23561;SDS011;11959;49.418;8.728;2023-07-24T07:04:24;8.85;;;6.38;;
23561;SDS011;11959;49.418;8.728;2023-07-24T07:06:50;8.52;;;5.82;;
23561;SDS011;11959;49.418;8.728;2023-07-24T07:09:15;9.50;;;5.95;;
23561;SDS011;11959;49.418;8.728;2023-07-24T07:11:41;10.75;;;6.47;;
23561;SDS011;11959;49.418;8.728;2023-07-24T07:14:08;9.48;;;6.53;;
23561;SDS011;11959;49.418;8.728;2023-07-24T07:16:34;9.20;;;5.72;;
23561;SDS011;11959;49.418;8.728;2023-07-24T07:19:00;9.15;;;6.13;;
23561;SDS011;11959;49.418;8.728;2023-07-24T07:21:25;8.50;;;6.03;;
23561;SDS011;11959;49.418;8.728;2023-07-24T07:23:51;8.52;;;6.15;;
23561;SDS011;11959;49.418;8.728;2023-07-24T07:26:17;8.77;;;5.75;;
23561;SDS011;11959;49.418;8.728;2023-07-24T07:28:43;7.97;;;5.72;;
23561;SDS011;11959;49.418;8.728;2023-07-24T07:31:10;9.88;;;6.47;;
23561;SDS011;11959;49.418;8.728;2023-07-24T07:33:36;10.25;;;6.07;;
23561;SDS011;11959;49.418;8.728;2023-07-24T07:36:02;9.88;;;6.45;;
23561;SDS011;11959;49.418;8.728;2023-07-24T07:38:28;10.07;;;6.75;;
23561;SDS011;11959;49.418;8.728;2023-07-24T07:40:54;9.10;;;6.10;;
23561;SDS011;11959;49.418;8.728;2023-07-24T07:43:20;8.85;;;6.22;;
23561;SDS011;11959;49.418;8.728;2023-07-24T07:45:46;8.07;;;5.75;;
23561;SDS011;11959;49.418;8.728;2023-07-24T07:48:13;9.30;;;6.18;;
23561;SDS011;11959;49.418;8.728;2023-07-24T07:50:38;9.63;;;6.47;;
23561;SDS011;11959;49.418;8.728;2023-07-24T07:53:04;10.50;;;6.97;;
23561;SDS011;11959;49.418;8.728;2023-07-24T07:55:30;9.57;;;6.90;;
23561;SDS011;11959;49.418;8.728;2023-07-24T07:57:56;10.40;;;6.70;;
23561;SDS011;11959;49.418;8.728;2023-07-24T08:00:21;9.73;;;6.68;;
23561;SDS011;11959;49.418;8.728;2023-07-24T08:02:47;9.80;;;6.97;;
23561;SDS011;11959;49.418;8.728;2023-07-24T08:05:13;10.90;;;7.07;;
23561;SDS011;11959;49.418;8.728;2023-07-24T08:07:39;11.63;;;7.15;;
23561;SDS011;11959;49.418;8.728;2023-07-24T08:10:05;10.98;;;7.32;;
23561;SDS011;11959;49.418;8.728;2023-07-24T08:12:31;13.80;;;7.15;;
23561;SDS011;11959;49.418;8.728;2023-07-24T08:14:57;10.35;;;6.88;;
23561;SDS011;11959;49.418;8.728;2023-07-24T08:17:23;10.40;;;6.90;;
23561;SDS011;11959;49.418;8.728;2023-07-24T08:19:48;12.25;;;7.45;;
23561;SDS011;11959;49.418;8.728;2023-07-24T08:22:14;11.20;;;7.28;;
23561;SDS011;11959;49.418;8.728;2023-07-24T08:24:40;10.32;;;7.28;;
23561;SDS011;11959;49.418;8.728;2023-07-24T08:27:05;9.27;;;6.68;;
23561;SDS011;11959;49.418;8.728;2023-07-24T08:29:31;10.77;;;6.85;;
23561;SDS011;11959;49.418;8.728;2023-07-24T08:31:58;11.32;;;7.07;;
23561;SDS011;11959;49.418;8.728;2023-07-24T08:34:23;12.25;;;7.60;;
23561;SDS011;11959;49.418;8.728;2023-07-24T08:36:49;10.93;;;6.97;;
23561;SDS011;11959;49.418;8.728;2023-07-24T08:39:15;10.73;;;7.10;;
23561;SDS011;11959;49.418;8.728;2023-07-24T08:41:40;10.45;;;7.32;;
23561;SDS011;11959;49.418;8.728;2023-07-24T08:44:09;8.95;;;6.32;;
23561;SDS011;11959;49.418;8.728;2023-07-24T08:46:39;10.35;;;7.53;;
23561;SDS011;11959;49.418;8.728;2023-07-24T08:49:06;10.75;;;7.15;;
23561;SDS011;11959;49.418;8.728;2023-07-24T08:51:37;9.90;;;7.13;;
23561;SDS011;11959;49.418;8.728;2023-07-24T08:54:03;13.15;;;7.72;;
23561;SDS011;11959;49.418;8.728;2023-07-24T08:56:29;11.55;;;7.10;;
23561;SDS011;11959;49.418;8.728;2023-07-24T08:58:55;9.88;;;7.03;;
23561;SDS011;11959;49.418;8.728;2023-07-24T09:01:21;12.68;;;7.68;;
23561;SDS011;11959;49.418;8.728;2023-07-24T09:03:46;9.93;;;7.22;;
23561;SDS011;11959;49.418;8.728;2023-07-24T09:06:12;11.32;;;6.90;;
23561;SDS011;11959;49.418;8.728;2023-07-24T09:08:39;10.15;;;7.43;;
23561;SDS011;11959;49.418;8.728;2023-07-24T09:11:06;10.60;;;7.13;;
23561;SDS011;11959;49.418;8.728;2023-07-24T09:13:34;10.27;;;7.13;;
23561;SDS011;11959;49.418;8.728;2023-07-24T09:16:01;10.43;;;7.38;;
23561;SDS011;11959;49.418;8.728;2023-07-24T09:18:27;10.85;;;7.22;;
23561;SDS011;11959;49.418;8.728;2023-07-24T09:21:07;10.43;;;6.95;;
23561;SDS011;11959;49.418;8.728;2023-07-24T09:23:33;13.77;;;7.90;;
23561;SDS011;11959;49.418;8.728;2023-07-24T09:26:04;8.70;;;6.57;;
23561;SDS011;11959;49.418;8.728;2023-07-24T09:28:31;10.18;;;6.78;;
23561;SDS011;11959;49.418;8.728;2023-07-24T09:30:58;9.95;;;7.13;;
23561;SDS011;11959;49.418;8.728;2023-07-24T09:33:37;10.77;;;7.25;;
23561;SDS011;11959;49.418;8.728;2023-07-24T09:36:05;9.00;;;6.82;;
23561;SDS011;11959;49.418;8.728;2023-07-24T09:38:36;9.13;;;6.90;;
23561;SDS011;11959;49.418;8.728;2023-07-24T09:41:02;9.23;;;6.70;;
23561;SDS011;11959;49.418;8.728;2023-07-24T09:43:29;10.15;;;6.82;;
23561;SDS011;11959;49.418;8.728;2023-07-24T09:45:55;10.80;;;6.90;;
23561;SDS011;11959;49.418;8.728;2023-07-24T09:48:22;10.07;;;6.97;;
23561;SDS011;11959;49.418;8.728;2023-07-24T09:50:54;10.20;;;6.55;;
23561;SDS011;11959;49.418;8.728;2023-07-24T09:53:22;10.90;;;6.75;;
23561;SDS011;11959;49.418;8.728;2023-07-24T09:56:03;12.90;;;6.93;;
23561;SDS011;11959;49.418;8.728;2023-07-24T09:58:32;11.35;;;6.97;;
23561;SDS011;11959;49.418;8.728;2023-07-24T10:00:59;10.52;;;6.60;;
23561;SDS011;11959;49.418;8.728;2023-07-24T10:03:31;7.63;;;6.25;;
23561;SDS011;11959;49.418;8.728;2023-07-24T10:05:59;9.55;;;6.93;;
23561;SDS011;11959;49.418;8.728;2023-07-24T10:08:25;8.75;;;6.70;;
23561;SDS011;11959;49.418;8.728;2023-07-24T10:10:52;9.18;;;6.40;;
23561;SDS011;11959;49.418;8.728;2023-07-24T10:13:20;11.38;;;6.68;;
23561;SDS011;11959;49.418;8.728;2023-07-24T10:15:47;9.40;;;6.38;;
23561;SDS011;11959;49.418;8.728;2023-07-24T10:18:15;10.00;;;6.30;;
23561;SDS011;11959;49.418;8.728;2023-07-24T10:20:43;8.93;;;6.53;;
23561;SDS011;11959;49.418;8.728;2023-07-24T10:23:09;9.23;;;6.30;;
23561;SDS011;11959;49.418;8.728;2023-07-24T10:25:40;9.40;;;6.60;;
23561;SDS011;11959;49.418;8.728;2023-07-24T10:28:09;10.90;;;6.28;;
23561;SDS011;11959;49.418;8.728;2023-07-24T10:30:37;10.15;;;6.72;;
23561;SDS011;11959;49.418;8.728;2023-07-24T10:35:37;9.77;;;6.88;;
23561;SDS011;11959;49.418;8.728;2023-07-24T10:38:06;8.23;;;6.63;;
23561;SDS011;11959;49.418;8.728;2023-07-24T10:40:33;9.82;;;6.78;;
23561;SDS011;11959;49.418;8.728;2023-07-24T10:43:09;10.65;;;6.65;;
23561;SDS011;11959;49.418;8.728;2023-07-24T10:45:39;8.13;;;6.07;;
23561;SDS011;11959;49.418;8.728;2023-07-24T10:48:13;9.05;;;6.38;;
23561;SDS011;11959;49.418;8.728;2023-07-24T10:50:40;9.10;;;6.28;;
23561;SDS011;11959;49.418;8.728;2023-07-24T10:53:11;9.55;;;6.50;;
23561;SDS011;11959;49.418;8.728;2023-07-24T10:55:40;9.15;;;5.63;;
23561;SDS011;11959;49.418;8.728;2023-07-24T10:58:10;10.70;;;6.18;;
23561;SDS011;11959;49.418;8.728;2023-07-24T11:00:38;9.30;;;6.15;;
23561;SDS011;11959;49.418;8.728;2023-07-24T11:03:10;11.32;;;6.43;;
23561;SDS011;11959;49.418;8.728;2023-07-24T11:05:41;9.63;;;5.95;;
23561;SDS011;11959;49.418;8.728;2023-07-24T11:08:11;9.05;;;6.43;;
23561;SDS011;11959;49.418;8.728;2023-07-24T11:10:46;11.23;;;6.60;;
23561;SDS011;11959;49.418;8.728;2023-07-24T11:13:16;9.10;;;6.50;;
23561;SDS011;11959;49.418;8.728;2023-07-24T11:15:45;9.68;;;6.15;;
23561;SDS011;11959;49.418;8.728;2023-07-24T11:18:11;9.07;;;6.18;;
23561;SDS011;11959;49.418;8.728;2023-07-24T11:20:38;8.07;;;6.03;;
23561;SDS011;11959;49.418;8.728;2023-07-24T11:23:08;8.35;;;6.05;;
23561;SDS011;11959;49.418;8.728;2023-07-24T11:25:35;10.30;;;6.93;;
23561;SDS011;11959;49.418;8.728;2023-07-24T11:28:00;8.85;;;6.68;;
23561;SDS011;11959;49.418;8.728;2023-07-24T11:30:29;11.15;;;6.22;;
23561;SDS011;11959;49.418;8.728;2023-07-24T11:32:55;9.82;;;6.30;;
23561;SDS011;11959;49.418;8.728;2023-07-24T11:35:24;9.38;;;6.40;;
23561;SDS011;11959;49.418;8.728;2023-07-24T11:37:50;8.68;;;6.30;;
23561;SDS011;11959;49.418;8.728;2023-07-24T11:40:16;10.27;;;6.47;;
23561;SDS011;11959;49.418;8.728;2023-07-24T11:42:45;9.10;;;6.00;;
23561;SDS011;11959;49.418;8.728;2023-07-24T11:45:12;8.25;;;6.20;;
23561;SDS011;11959;49.418;8.728;2023-07-24T11:47:44;9.18;;;6.32;;
23561;SDS011;11959;49.418;8.728;2023-07-24T11:50:11;10.85;;;6.57;;
23561;SDS011;11959;49.418;8.728;2023-07-24T11:52:41;9.50;;;6.00;;
23561;SDS011;11959;49.418;8.728;2023-07-24T11:55:12;9.07;;;6.53;;
23561;SDS011;11959;49.418;8.728;2023-07-24T11:57:38;9.02;;;6.32;;
23561;SDS011;11959;49.418;8.728;2023-07-24T12:00:05;8.65;;;6.40;;
23561;SDS011;11959;49.418;8.728;2023-07-24T12:02:43;9.65;;;6.35;;
23561;SDS011;11959;49.418;8.728;2023-07-24T12:05:09;8.30;;;5.85;;
23561;SDS011;11959;49.418;8.728;2023-07-24T12:07:35;8.57;;;6.05;;
23561;SDS011;11959;49.418;8.728;2023-07-24T12:10:02;8.00;;;5.68;;
23561;SDS011;11959;49.418;8.728;2023-07-24T12:15:11;10.25;;;6.20;;
23561;SDS011;11959;49.418;8.728;2023-07-24T12:17:37;9.25;;;6.55;;
23561;SDS011;11959;49.418;8.728;2023-07-24T12:20:04;9.13;;;6.55;;
23561;SDS011;11959;49.418;8.728;2023-07-24T12:22:33;8.07;;;6.22;;
23561;SDS011;11959;49.418;8.728;2023-07-24T12:24:59;10.38;;;6.82;;
23561;SDS011;11959;49.418;8.728;2023-07-24T12:27:26;9.45;;;6.38;;
23561;SDS011;11959;49.418;8.728;2023-07-24T12:29:52;9.10;;;6.38;;
23561;SDS011;11959;49.418;8.728;2023-07-24T12:32:17;9.75;;;6.70;;
23561;SDS011;11959;49.418;8.728;2023-07-24T12:34:44;9.18;;;6.68;;
23561;SDS011;11959;49.418;8.728;2023-07-24T12:37:11;10.00;;;6.30;;
23561;SDS011;11959;49.418;8.728;2023-07-24T12:39:37;9.75;;;6.47;;
23561;SDS011;11959;49.418;8.728;2023-07-24T12:42:04;9.45;;;6.45;;
23561;SDS011;11959;49.418;8.728;2023-07-24T12:44:30;9.70;;;7.28;;
23561;SDS011;11959;49.418;8.728;2023-07-24T12:46:55;9.23;;;6.72;;
23561;SDS011;11959;49.418;8.728;2023-07-24T12:49:21;10.85;;;7.05;;
23561;SDS011;11959;49.418;8.728;2023-07-24T12:51:47;9.38;;;7.25;;
23561;SDS011;11959;49.418;8.728;2023-07-24T12:54:12;8.85;;;6.68;;
23561;SDS011;11959;49.418;8.728;2023-07-24T12:56:38;9.35;;;6.55;;
23561;SDS011;11959;49.418;8.728;2023-07-24T12:59:05;8.95;;;6.10;;
23561;SDS011;11959;49.418;8.728;2023-07-24T13:01:30;8.55;;;6.63;;
23561;SDS011;11959;49.418;8.728;2023-07-24T13:03:56;9.73;;;6.70;;
23561;SDS011;11959;49.418;8.728;2023-07-24T13:06:21;9.77;;;6.47;;
23561;SDS011;11959;49.418;8.728;2023-07-24T13:08:47;9.13;;;6.55;;
23561;SDS011;11959;49.418;8.728;2023-07-24T13:11:13;9.48;;;6.38;;
23561;SDS011;11959;49.418;8.728;2023-07-24T13:13:39;8.68;;;6.40;;
23561;SDS011;11959;49.418;8.728;2023-07-24T13:16:05;8.27;;;6.22;;
23561;SDS011;11959;49.418;8.728;2023-07-24T13:18:31;9.00;;;6.50;;
23561;SDS011;11959;49.418;8.728;2023-07-24T13:20:56;8.75;;;6.40;;
23561;SDS011;11959;49.418;8.728;2023-07-24T13:23:22;8.98;;;6.63;;
23561;SDS011;11959;49.418;8.728;2023-07-24T13:25:48;8.98;;;6.50;;
23561;SDS011;11959;49.418;8.728;2023-07-24T13:28:15;8.45;;;6.45;;
23561;SDS011;11959;49.418;8.728;2023-07-24T13:30:43;11.65;;;6.88;;
23561;SDS011;11959;49.418;8.728;2023-07-24T13:33:09;9.60;;;6.97;;
23561;SDS011;11959;49.418;8.728;2023-07-24T13:35:34;8.88;;;6.47;;
23561;SDS011;11959;49.418;8.728;2023-07-24T13:38:00;9.07;;;6.25;;
23561;SDS011;11959;49.418;8.728;2023-07-24T13:40:26;9.75;;;6.72;;
23561;SDS011;11959;49.418;8.728;2023-07-24T13:42:52;9.65;;;6.45;;
23561;SDS011;11959;49.418;8.728;2023-07-24T13:45:17;7.68;;;6.47;;
23561;SDS011;11959;49.418;8.728;2023-07-24T13:47:43;7.57;;;5.38;;
23561;SDS011;11959;49.418;8.728;2023-07-24T13:50:08;7.80;;;6.03;;
23561;SDS011;11959;49.418;8.728;2023-07-24T13:52:34;9.93;;;6.55;;
23561;SDS011;11959;49.418;8.728;2023-07-24T13:55:00;8.20;;;5.88;;
23561;SDS011;11959;49.418;8.728;2023-07-24T13:57:26;9.55;;;6.28;;
23561;SDS011;11959;49.418;8.728;2023-07-24T13:59:52;9.80;;;6.15;;
23561;SDS011;11959;49.418;8.728;2023-07-24T14:02:17;8.90;;;6.57;;
23561;SDS011;11959;49.418;8.728;2023-07-24T14:04:43;9.07;;;6.32;;
23561;SDS011;11959;49.418;8.728;2023-07-24T14:07:09;8.35;;;6.38;;
23561;SDS011;11959;49.418;8.728;2023-07-24T14:09:37;8.05;;;5.88;;
23561;SDS011;11959;49.418;8.728;2023-07-24T14:12:03;9.30;;;6.28;;
23561;SDS011;11959;49.418;8.728;2023-07-24T14:14:29;9.88;;;6.10;;
23561;SDS011;11959;49.418;8.728;2023-07-24T14:16:55;8.98;;;6.15;;
23561;SDS011;11959;49.418;8.728;2023-07-24T14:19:22;7.90;;;5.65;;
23561;SDS011;11959;49.418;8.728;2023-07-24T14:21:48;8.20;;;6.10;;
23561;SDS011;11959;49.418;8.728;2023-07-24T14:24:15;9.00;;;5.82;;
23561;SDS011;11959;49.418;8.728;2023-07-24T14:26:40;7.80;;;5.90;;
23561;SDS011;11959;49.418;8.728;2023-07-24T14:29:06;10.75;;;6.10;;
23561;SDS011;11959;49.418;8.728;2023-07-24T14:31:32;7.80;;;5.95;;
23561;SDS011;11959;49.418;8.728;2023-07-24T14:33:57;8.60;;;6.20;;
23561;SDS011;11959;49.418;8.728;2023-07-24T14:36:23;7.80;;;6.05;;
23561;SDS011;11959;49.418;8.728;2023-07-24T14:38:49;11.63;;;7.15;;
23561;SDS011;11959;49.418;8.728;2023-07-24T14:41:15;12.63;;;7.75;;
23561;SDS011;11959;49.418;8.728;2023-07-24T14:43:41;16.13;;;7.55;;
23561;SDS011;11959;49.418;8.728;2023-07-24T14:46:07;12.43;;;7.18;;
23561;SDS011;11959;49.418;8.728;2023-07-24T14:48:33;12.73;;;7.43;;
23561;SDS011;11959;49.418;8.728;2023-07-24T14:50:58;16.40;;;8.77;;